sensor_id;sensor_type;location;lat;lon;timestamp;temperature;humidity
19110;DHT22;9687;50.836;12.060;2022-07-25T00:01:55;25.40;50.90
19110;DHT22;9687;50.836;12.060;2022-07-25T00:04:23;25.40;50.90
19110;DHT22;9687;50.836;12.060;2022-07-25T00:06:50;25.30;50.80
19110;DHT22;9687;50.836;12.060;2022-07-25T00:09:17;25.40;51.00
19110;DHT22;9687;50.836;12.060;2022-07-25T00:11:45;25.30;51.00
19110;DHT22;9687;50.836;12.060;2022-07-25T00:14:13;25.30;51.10
19110;DHT22;9687;50.836;12.060;2022-07-25T00:16:41;25.20;51.20
19110;DHT22;9687;50.836;12.060;2022-07-25T00:19:09;25.00;51.30
19110;DHT22;9687;50.836;12.060;2022-07-25T00:21:37;24.90;51.50
19110;DHT22;9687;50.836;12.060;2022-07-25T00:24:05;24.80;51.60
19110;DHT22;9687;50.836;12.060;2022-07-25T00:26:32;24.70;51.80
19110;DHT22;9687;50.836;12.060;2022-07-25T00:29:00;24.60;52.10
19110;DHT22;9687;50.836;12.060;2022-07-25T00:31:28;24.50;52.10
19110;DHT22;9687;50.836;12.060;2022-07-25T00:33:57;24.50;52.10
19110;DHT22;9687;50.836;12.060;2022-07-25T00:36:24;24.40;52.30
19110;DHT22;9687;50.836;12.060;2022-07-25T00:38:52;24.30;52.50
19110;DHT22;9687;50.836;12.060;2022-07-25T00:41:19;24.30;52.70
19110;DHT22;9687;50.836;12.060;2022-07-25T05:45:35;24.50;62.60
19110;DHT22;9687;50.836;12.060;2022-07-25T05:48:02;24.60;62.40
19110;DHT22;9687;50.836;12.060;2022-07-25T05:50:30;24.70;62.10
19110;DHT22;9687;50.836;12.060;2022-07-25T05:52:58;24.70;62.10
19110;DHT22;9687;50.836;12.060;2022-07-25T05:55:25;24.90;62.30
19110;DHT22;9687;50.836;12.060;2022-07-25T05:57:53;25.00;62.30
19110;DHT22;9687;50.836;12.060;2022-07-25T06:00:21;25.10;61.80
19110;DHT22;9687;50.836;12.060;2022-07-25T06:02:51;25.20;61.90
19110;DHT22;9687;50.836;12.060;2022-07-25T06:05:19;25.30;61.40
19110;DHT22;9687;50.836;12.060;2022-07-25T06:07:47;25.40;61.30
19110;DHT22;9687;50.836;12.060;2022-07-25T06:10:15;25.50;60.40
19110;DHT22;9687;50.836;12.060;2022-07-25T06:12:43;25.60;60.30
19110;DHT22;9687;50.836;12.060;2022-07-25T06:15:11;25.70;59.60
19110;DHT22;9687;50.836;12.060;2022-07-25T06:17:38;25.80;59.20
19110;DHT22;9687;50.836;12.060;2022-07-25T06:20:09;25.90;58.90
19110;DHT22;9687;50.836;12.060;2022-07-25T06:22:39;26.00;58.50
19110;DHT22;9687;50.836;12.060;2022-07-25T06:25:16;26.10;58.60
19110;DHT22;9687;50.836;12.060;2022-07-25T06:27:49;26.20;58.00
19110;DHT22;9687;50.836;12.060;2022-07-25T06:30:20;26.40;57.90
19110;DHT22;9687;50.836;12.060;2022-07-25T06:32:54;26.50;57.50
19110;DHT22;9687;50.836;12.060;2022-07-25T06:35:30;26.60;57.50
19110;DHT22;9687;50.836;12.060;2022-07-25T06:38:00;26.70;57.10
19110;DHT22;9687;50.836;12.060;2022-07-25T06:40:32;26.80;56.80
19110;DHT22;9687;50.836;12.060;2022-07-25T06:43:19;26.90;56.50
19110;DHT22;9687;50.836;12.060;2022-07-25T08:47:11;36.70;37.80
19110;DHT22;9687;50.836;12.060;2022-07-25T08:49:40;37.40;36.50
19110;DHT22;9687;50.836;12.060;2022-07-25T08:52:08;37.90;35.70
19110;DHT22;9687;50.836;12.060;2022-07-25T08:54:36;38.50;36.00
19110;DHT22;9687;50.836;12.060;2022-07-25T08:57:03;39.10;34.30
19110;DHT22;9687;50.836;12.060;2022-07-25T08:59:31;39.60;33.30
19110;DHT22;9687;50.836;12.060;2022-07-25T09:01:58;40.20;33.10
19110;DHT22;9687;50.836;12.060;2022-07-25T09:04:32;40.60;31.80
19110;DHT22;9687;50.836;12.060;2022-07-25T09:06:59;40.90;31.50
19110;DHT22;9687;50.836;12.060;2022-07-25T09:09:31;41.30;30.80
19110;DHT22;9687;50.836;12.060;2022-07-25T09:11:59;41.70;31.10
19110;DHT22;9687;50.836;12.060;2022-07-25T09:14:28;42.00;30.00
19110;DHT22;9687;50.836;12.060;2022-07-25T09:16:56;42.30;29.70
19110;DHT22;9687;50.836;12.060;2022-07-25T09:19:24;42.60;29.50
19110;DHT22;9687;50.836;12.060;2022-07-25T09:22:04;42.70;29.10
19110;DHT22;9687;50.836;12.060;2022-07-25T09:24:33;42.70;29.00
19110;DHT22;9687;50.836;12.060;2022-07-25T09:27:07;43.00;28.90
19110;DHT22;9687;50.836;12.060;2022-07-25T09:29:39;43.40;28.70
19110;DHT22;9687;50.836;12.060;2022-07-25T09:32:14;43.70;28.30
19110;DHT22;9687;50.836;12.060;2022-07-25T09:34:44;44.10;28.10
19110;DHT22;9687;50.836;12.060;2022-07-25T09:37:14;44.50;27.90
19110;DHT22;9687;50.836;12.060;2022-07-25T09:39:44;44.80;27.60
19110;DHT22;9687;50.836;12.060;2022-07-25T09:42:23;44.90;27.50
19110;DHT22;9687;50.836;12.060;2022-07-25T09:45:03;45.20;27.00
19110;DHT22;9687;50.836;12.060;2022-07-25T09:47:33;45.60;26.90
19110;DHT22;9687;50.836;12.060;2022-07-25T09:50:02;45.60;26.80
19110;DHT22;9687;50.836;12.060;2022-07-25T09:52:31;45.60;26.70
19110;DHT22;9687;50.836;12.060;2022-07-25T09:55:02;45.50;26.60
19110;DHT22;9687;50.836;12.060;2022-07-25T09:57:29;45.80;26.70
19110;DHT22;9687;50.836;12.060;2022-07-25T09:59:59;46.10;26.80
19110;DHT22;9687;50.836;12.060;2022-07-25T10:02:36;46.50;26.30
19110;DHT22;9687;50.836;12.060;2022-07-25T10:05:12;46.60;26.20
19110;DHT22;9687;50.836;12.060;2022-07-25T10:07:46;46.50;26.00
19110;DHT22;9687;50.836;12.060;2022-07-25T10:10:23;46.60;26.20
19110;DHT22;9687;50.836;12.060;2022-07-25T10:13:01;46.50;26.00
19110;DHT22;9687;50.836;12.060;2022-07-25T10:15:41;46.30;26.20
19110;DHT22;9687;50.836;12.060;2022-07-25T10:18:09;46.30;26.20
19110;DHT22;9687;50.836;12.060;2022-07-25T10:20:37;46.30;26.00
19110;DHT22;9687;50.836;12.060;2022-07-25T10:23:19;46.10;26.10
19110;DHT22;9687;50.836;12.060;2022-07-25T10:25:58;46.20;26.20
19110;DHT22;9687;50.836;12.060;2022-07-25T10:28:39;46.50;26.00
19110;DHT22;9687;50.836;12.060;2022-07-25T10:31:17;46.60;25.70
19110;DHT22;9687;50.836;12.060;2022-07-25T10:33:50;47.00;25.90
19110;DHT22;9687;50.836;12.060;2022-07-25T10:36:19;47.10;25.50
19110;DHT22;9687;50.836;12.060;2022-07-25T10:38:51;47.30;25.20
19110;DHT22;9687;50.836;12.060;2022-07-25T10:41:23;47.60;25.10
19110;DHT22;9687;50.836;12.060;2022-07-25T10:43:55;48.00;24.90
19110;DHT22;9687;50.836;12.060;2022-07-25T15:46:21;37.50;33.80
19110;DHT22;9687;50.836;12.060;2022-07-25T15:48:49;37.50;33.90
19110;DHT22;9687;50.836;12.060;2022-07-25T15:51:19;37.50;34.00
19110;DHT22;9687;50.836;12.060;2022-07-25T15:53:47;37.50;34.00
19110;DHT22;9687;50.836;12.060;2022-07-25T15:56:15;37.50;34.20
19110;DHT22;9687;50.836;12.060;2022-07-25T15:58:43;37.50;33.60
19110;DHT22;9687;50.836;12.060;2022-07-25T16:01:11;37.50;34.20
19110;DHT22;9687;50.836;12.060;2022-07-25T16:03:39;37.50;34.50
19110;DHT22;9687;50.836;12.060;2022-07-25T16:06:07;37.50;34.50
19110;DHT22;9687;50.836;12.060;2022-07-25T16:08:38;40.10;36.00
19110;DHT22;9687;50.836;12.060;2022-07-25T16:11:17;37.50;34.30
19110;DHT22;9687;50.836;12.060;2022-07-25T16:14:02;37.50;33.90
19110;DHT22;9687;50.836;12.060;2022-07-25T16:19:01;37.40;34.10
19110;DHT22;9687;50.836;12.060;2022-07-25T16:21:29;37.40;34.80
19110;DHT22;9687;50.836;12.060;2022-07-25T16:23:57;37.40;34.70
19110;DHT22;9687;50.836;12.060;2022-07-25T16:26:24;37.40;34.70
19110;DHT22;9687;50.836;12.060;2022-07-25T16:28:52;37.40;34.70
19110;DHT22;9687;50.836;12.060;2022-07-25T16:31:19;37.30;34.60
19110;DHT22;9687;50.836;12.060;2022-07-25T16:33:47;37.30;34.50
19110;DHT22;9687;50.836;12.060;2022-07-25T16:36:16;37.30;35.20
19110;DHT22;9687;50.836;12.060;2022-07-25T16:38:43;37.20;35.70
19110;DHT22;9687;50.836;12.060;2022-07-25T16:41:12;37.20;35.20
19110;DHT22;9687;50.836;12.060;2022-07-25T16:43:40;37.10;35.70
19110;DHT22;9687;50.836;12.060;2022-07-25T16:46:08;37.00;36.40
